createdAt,value
2018-09-21T00:02:09.363Z,99.90
2018-09-21T00:04:42.989Z,99.90
2018-09-21T00:07:16.645Z,99.90
2018-09-21T00:09:50.326Z,99.90
2018-09-21T00:12:23.934Z,99.90
2018-09-21T00:14:57.670Z,99.90
2018-09-21T00:17:31.232Z,99.90
2018-09-21T00:20:04.856Z,99.90
2018-09-21T00:22:38.613Z,99.90
2018-09-21T00:25:13.185Z,99.90
2018-09-21T00:27:46.987Z,99.90
2018-09-21T00:30:21.394Z,99.90
2018-09-21T00:32:55.112Z,99.90
2018-09-21T00:35:29.612Z,99.90
2018-09-21T00:38:03.304Z,99.90
2018-09-21T00:40:36.957Z,99.90
2018-09-21T00:43:10.651Z,99.90
2018-09-21T00:45:44.259Z,99.90
2018-09-21T00:48:18.673Z,99.90
2018-09-21T00:50:52.424Z,99.90
2018-09-21T00:53:26.802Z,99.90
2018-09-21T00:56:00.552Z,99.90
2018-09-21T00:58:34.309Z,99.90
2018-09-21T01:01:08.044Z,99.90
2018-09-21T01:03:42.828Z,99.90
2018-09-21T01:06:16.612Z,99.90
2018-09-21T01:08:50.539Z,99.90
2018-09-21T01:11:24.980Z,99.90
2018-09-21T01:16:41.717Z,99.90
2018-09-21T01:19:16.192Z,99.90
2018-09-21T01:21:50.641Z,99.90
2018-09-21T01:24:24.396Z,99.90
2018-09-21T01:26:58.168Z,99.90
2018-09-21T01:29:31.773Z,99.90
2018-09-21T01:32:05.325Z,99.90
2018-09-21T01:34:39.147Z,99.90
2018-09-21T01:37:13.573Z,99.90
2018-09-21T01:39:47.999Z,99.90
2018-09-21T01:42:21.744Z,99.90
2018-09-21T01:44:55.536Z,99.90
2018-09-21T01:47:30.000Z,99.90
2018-09-21T01:50:04.549Z,99.90
2018-09-21T01:52:38.247Z,99.90
2018-09-21T01:55:11.863Z,99.90
2018-09-21T01:57:46.274Z,99.90
2018-09-21T02:00:20.080Z,99.90
2018-09-21T02:02:53.650Z,99.90
2018-09-21T02:05:27.404Z,99.90
2018-09-21T02:08:01.085Z,99.90
2018-09-21T02:10:34.866Z,99.90
2018-09-21T02:13:08.555Z,99.90
2018-09-21T02:15:42.233Z,99.90
2018-09-21T02:18:15.872Z,99.90
2018-09-21T02:20:50.454Z,99.90
2018-09-21T02:23:24.104Z,99.90
2018-09-21T02:25:57.774Z,99.90
2018-09-21T02:28:31.560Z,99.90
2018-09-21T02:31:05.292Z,99.90
2018-09-21T02:33:39.689Z,99.90
2018-09-21T02:36:13.455Z,99.90
2018-09-21T02:38:47.191Z,99.90
2018-09-21T02:41:20.932Z,99.90
2018-09-21T02:43:55.400Z,99.90
2018-09-21T02:46:28.989Z,99.90
2018-09-21T02:49:03.310Z,99.90
2018-09-21T02:51:37.071Z,99.90
2018-09-21T02:54:10.824Z,99.90
2018-09-21T02:56:44.535Z,99.90
2018-09-21T02:59:18.328Z,99.90
2018-09-21T03:01:51.988Z,99.90
2018-09-21T03:04:25.753Z,99.90
2018-09-21T03:07:00.241Z,99.90
2018-09-21T03:09:33.923Z,99.90
2018-09-21T03:12:07.640Z,99.90
2018-09-21T03:14:42.338Z,99.90
2018-09-21T03:17:16.932Z,99.90
2018-09-21T03:19:50.650Z,99.90
2018-09-21T03:22:24.423Z,99.90
2018-09-21T03:24:58.148Z,99.90
2018-09-21T03:27:31.756Z,99.90
2018-09-21T03:30:05.555Z,99.90
2018-09-21T03:32:40.057Z,99.90
2018-09-21T03:35:13.795Z,99.90
2018-09-21T03:37:47.519Z,99.90
2018-09-21T03:40:21.174Z,99.90
2018-09-21T03:42:54.773Z,99.90
2018-09-21T03:45:28.527Z,99.90
2018-09-21T03:48:03.103Z,99.90
2018-09-21T03:50:36.852Z,99.90
2018-09-21T03:53:10.638Z,99.90
2018-09-21T03:55:44.351Z,99.90
2018-09-21T03:58:18.235Z,99.90
2018-09-21T04:00:52.766Z,99.90
2018-09-21T04:03:26.387Z,99.90
2018-09-21T04:06:00.861Z,99.90
2018-09-21T04:08:34.512Z,99.90
2018-09-21T04:11:08.272Z,99.90
2018-09-21T04:13:41.968Z,99.90
2018-09-21T04:16:15.727Z,99.90
2018-09-21T04:18:49.478Z,99.90
2018-09-21T04:21:23.289Z,99.90
2018-09-21T04:23:56.975Z,99.90
2018-09-21T04:26:30.739Z,99.90
2018-09-21T04:29:04.489Z,99.90
2018-09-21T04:31:38.252Z,99.90
2018-09-21T04:34:12.003Z,99.90
2018-09-21T04:36:45.729Z,99.90
2018-09-21T04:39:19.545Z,99.90
2018-09-21T04:41:53.283Z,99.90
2018-09-21T04:44:26.880Z,99.90
2018-09-21T04:47:00.534Z,99.90
2018-09-21T04:49:34.241Z,99.90
2018-09-21T04:52:07.849Z,99.90
2018-09-21T04:54:42.369Z,99.90
2018-09-21T04:57:16.025Z,99.90
2018-09-21T04:59:49.599Z,99.90
2018-09-21T05:02:23.407Z,99.90
2018-09-21T05:04:57.368Z,99.90
2018-09-21T05:07:31.118Z,99.90
2018-09-21T05:10:06.127Z,99.90
2018-09-21T05:12:39.891Z,99.90
2018-09-21T05:15:13.663Z,99.90
2018-09-21T05:17:48.156Z,99.90
2018-09-21T05:20:21.827Z,99.90
2018-09-21T05:22:55.613Z,99.90
2018-09-21T05:25:30.135Z,99.90
2018-09-21T05:28:03.692Z,99.90
2018-09-21T05:30:38.247Z,99.90
2018-09-21T05:33:11.918Z,99.90
2018-09-21T05:35:45.551Z,99.90
2018-09-21T05:38:19.212Z,99.90
2018-09-21T05:40:53.781Z,99.90
2018-09-21T05:43:27.390Z,99.90
2018-09-21T05:46:01.153Z,99.90
2018-09-21T05:48:34.882Z,99.90
2018-09-21T05:51:09.425Z,99.90
2018-09-21T05:53:44.124Z,99.90
2018-09-21T05:56:17.801Z,99.90
2018-09-21T05:58:51.478Z,99.90
2018-09-21T06:01:25.159Z,99.90
2018-09-21T06:03:59.638Z,99.90
2018-09-21T06:06:34.223Z,99.90
2018-09-21T06:09:07.968Z,99.90
2018-09-21T06:11:41.733Z,99.90
2018-09-21T06:14:15.455Z,99.90
2018-09-21T06:16:49.225Z,99.90
2018-09-21T06:19:23.112Z,99.90
2018-09-21T06:21:56.912Z,99.90
2018-09-21T06:24:30.636Z,99.90
2018-09-21T06:27:04.419Z,99.90
2018-09-21T06:29:38.951Z,99.90
2018-09-21T06:32:12.553Z,99.90
2018-09-21T06:34:46.217Z,99.90
2018-09-21T06:37:20.752Z,99.90
2018-09-21T06:39:54.508Z,99.90
2018-09-21T06:42:28.244Z,99.90
2018-09-21T06:45:01.892Z,99.90
2018-09-21T06:47:35.688Z,99.90
2018-09-21T06:50:09.285Z,99.90
2018-09-21T06:52:43.754Z,99.90
2018-09-21T06:55:17.500Z,99.90
2018-09-21T06:57:51.324Z,99.90
2018-09-21T07:00:24.895Z,99.90
2018-09-21T07:02:58.556Z,99.90
2018-09-21T07:05:33.205Z,99.90
2018-09-21T07:08:06.852Z,99.90
2018-09-21T07:10:40.695Z,99.90
2018-09-21T07:13:14.305Z,99.90
2018-09-21T07:15:47.997Z,99.90
2018-09-21T07:18:22.387Z,99.90
2018-09-21T07:20:56.008Z,99.90
2018-09-21T07:23:29.816Z,99.90
2018-09-21T07:26:03.591Z,99.90
2018-09-21T07:28:37.366Z,99.90
2018-09-21T07:31:11.104Z,99.90
2018-09-21T07:33:44.799Z,99.90
2018-09-21T07:36:18.560Z,99.90
2018-09-21T07:38:52.981Z,99.90
2018-09-21T07:41:27.433Z,99.90
2018-09-21T07:44:02.000Z,99.90
2018-09-21T07:46:35.709Z,99.90
2018-09-21T07:49:09.522Z,99.90
2018-09-21T07:51:43.317Z,99.90
2018-09-21T07:54:17.062Z,99.90
2018-09-21T07:56:51.348Z,99.90
2018-09-21T07:59:25.023Z,99.90
2018-09-21T08:01:58.729Z,99.90
2018-09-21T08:04:32.458Z,99.90
2018-09-21T08:07:06.999Z,99.90
2018-09-21T08:09:40.712Z,99.90
2018-09-21T08:12:14.487Z,99.90
2018-09-21T08:14:49.088Z,99.90
2018-09-21T08:17:22.760Z,99.90
2018-09-21T08:19:56.364Z,99.90
2018-09-21T08:22:30.202Z,99.90
2018-09-21T08:25:04.660Z,99.90
2018-09-21T08:27:39.122Z,99.90
2018-09-21T08:30:12.867Z,99.90
2018-09-21T08:32:46.787Z,99.90
2018-09-21T08:35:20.654Z,99.90
2018-09-21T08:37:54.419Z,99.90
2018-09-21T08:40:28.265Z,99.90
2018-09-21T08:43:01.866Z,99.90
2018-09-21T08:45:36.440Z,99.90
2018-09-21T08:48:10.119Z,99.90
2018-09-21T08:50:44.603Z,99.90
2018-09-21T08:53:18.277Z,99.90
2018-09-21T08:55:52.088Z,99.90
2018-09-21T08:58:25.822Z,99.90
2018-09-21T09:00:59.559Z,99.90
2018-09-21T09:03:33.434Z,99.90
2018-09-21T09:06:07.056Z,97.60
2018-09-21T09:08:40.724Z,96.50
2018-09-21T09:11:15.280Z,93.60
2018-09-21T09:13:48.976Z,93.60
2018-09-21T09:16:22.748Z,93.40
2018-09-21T09:18:57.112Z,94.20
2018-09-21T09:21:30.836Z,94.30
2018-09-21T09:24:04.679Z,95.50
2018-09-21T09:26:38.348Z,96.40
2018-09-21T09:29:12.834Z,96.00
2018-09-21T09:31:46.547Z,96.00
2018-09-21T09:34:20.118Z,96.40
2018-09-21T09:36:53.941Z,96.80
2018-09-21T09:39:27.625Z,97.50
2018-09-21T09:42:01.459Z,97.80
2018-09-21T09:44:35.135Z,97.80
2018-09-21T09:47:08.924Z,97.40
2018-09-21T09:49:42.694Z,96.30
2018-09-21T09:52:17.423Z,96.10
2018-09-21T09:54:51.137Z,96.40
2018-09-21T09:57:24.959Z,96.00
2018-09-21T09:59:58.750Z,95.70
2018-09-21T10:02:32.516Z,94.70
2018-09-21T10:05:06.104Z,94.70
2018-09-21T10:07:40.464Z,95.00
2018-09-21T10:10:14.279Z,95.00
2018-09-21T10:12:47.897Z,96.00
2018-09-21T10:15:21.460Z,96.80
2018-09-21T10:17:55.217Z,96.50
2018-09-21T10:20:31.214Z,96.50
2018-09-21T10:23:04.938Z,96.60
2018-09-21T10:25:38.676Z,96.60
2018-09-21T10:28:13.219Z,97.40
2018-09-21T10:30:47.115Z,97.50
2018-09-21T10:33:21.270Z,97.80
2018-09-21T10:35:54.933Z,98.00
2018-09-21T10:38:28.685Z,97.90
2018-09-21T10:41:02.356Z,97.90
2018-09-21T10:43:36.752Z,97.90
2018-09-21T10:46:11.332Z,97.80
2018-09-21T10:48:45.755Z,97.90
2018-09-21T10:51:19.360Z,97.90
2018-09-21T10:53:53.079Z,98.50
2018-09-21T10:56:27.583Z,97.90
2018-09-21T10:59:01.999Z,96.90
2018-09-21T11:01:35.739Z,96.90
2018-09-21T11:04:09.490Z,97.20
2018-09-21T11:06:44.021Z,97.20
2018-09-21T11:09:18.452Z,97.30
2018-09-21T11:11:52.168Z,97.30
2018-09-21T11:14:25.964Z,97.30
2018-09-21T11:16:59.615Z,97.50
2018-09-21T11:19:33.360Z,97.00
2018-09-21T11:22:07.751Z,97.90
2018-09-21T11:24:41.432Z,97.90
2018-09-21T11:27:15.127Z,98.10
2018-09-21T11:29:48.931Z,97.40
2018-09-21T11:32:23.453Z,97.10
2018-09-21T11:34:57.274Z,97.10
2018-09-21T11:37:31.787Z,97.30
2018-09-21T11:40:05.391Z,97.30
2018-09-21T11:42:39.100Z,96.70
2018-09-21T11:45:12.877Z,97.00
2018-09-21T11:47:47.522Z,97.70
2018-09-21T11:50:21.135Z,97.70
2018-09-21T11:52:54.882Z,97.20
2018-09-21T11:55:28.632Z,97.50
2018-09-21T11:58:03.138Z,97.70
2018-09-21T12:00:37.532Z,98.20
2018-09-21T12:03:11.368Z,98.20
2018-09-21T12:05:45.040Z,98.30
2018-09-21T12:08:18.788Z,98.50
2018-09-21T12:10:52.605Z,98.50
2018-09-21T12:13:26.369Z,98.30
2018-09-21T12:16:01.005Z,99.00
2018-09-21T12:18:34.874Z,98.90
2018-09-21T12:21:08.554Z,99.10
2018-09-21T12:23:42.271Z,99.20
2018-09-21T12:26:16.097Z,99.40
2018-09-21T12:28:49.805Z,99.80
2018-09-21T12:31:23.479Z,99.90
2018-09-21T12:33:57.194Z,99.80
2018-09-21T12:36:31.042Z,99.90
2018-09-21T12:39:04.697Z,99.90
2018-09-21T12:41:38.479Z,99.60
2018-09-21T12:44:12.228Z,99.70
2018-09-21T12:46:46.799Z,99.60
2018-09-21T12:49:20.522Z,99.60
2018-09-21T12:51:55.015Z,99.90
2018-09-21T12:54:29.395Z,99.90
2018-09-21T12:57:03.060Z,99.80
2018-09-21T12:59:37.534Z,99.90
2018-09-21T13:02:11.300Z,99.90
2018-09-21T13:04:44.987Z,99.90
2018-09-21T13:07:18.734Z,99.90
2018-09-21T13:09:52.472Z,99.90
2018-09-21T13:12:26.989Z,99.90
2018-09-21T13:15:00.649Z,99.90
2018-09-21T13:17:34.439Z,99.90
2018-09-21T13:20:08.164Z,99.90
2018-09-21T13:22:42.629Z,99.90
2018-09-21T13:25:16.332Z,99.90
2018-09-21T13:27:50.875Z,99.90
2018-09-21T13:30:25.228Z,99.90
2018-09-21T13:32:59.782Z,99.90
2018-09-21T13:35:33.521Z,99.90
2018-09-21T13:38:07.272Z,99.90
2018-09-21T13:40:41.046Z,99.90
2018-09-21T13:43:14.826Z,99.90
2018-09-21T13:45:49.234Z,99.90
2018-09-21T13:48:22.800Z,99.90
2018-09-21T13:50:56.610Z,99.90
2018-09-21T13:53:30.339Z,99.90
2018-09-21T13:56:04.461Z,99.90
2018-09-21T13:58:38.051Z,99.90
2018-09-21T14:01:12.324Z,99.90
2018-09-21T14:03:45.975Z,99.90
2018-09-21T14:06:19.748Z,99.90
2018-09-21T14:08:55.442Z,99.90
2018-09-21T14:11:31.250Z,99.90
2018-09-21T14:14:13.142Z,99.90
2018-09-21T14:16:46.856Z,99.90
2018-09-21T14:19:20.677Z,99.90
2018-09-21T14:21:54.436Z,99.90
2018-09-21T14:24:28.193Z,99.90
2018-09-21T14:27:01.946Z,99.90
2018-09-21T14:29:36.429Z,99.90
2018-09-21T14:32:10.183Z,99.90
2018-09-21T14:34:43.958Z,99.90
2018-09-21T14:37:18.448Z,99.90
2018-09-21T14:39:52.028Z,99.90
2018-09-21T14:42:26.583Z,99.90
2018-09-21T14:45:01.097Z,99.90
2018-09-21T14:47:34.819Z,99.90
2018-09-21T14:50:08.629Z,99.90
2018-09-21T14:52:42.373Z,99.90
2018-09-21T14:55:16.132Z,99.90
2018-09-21T14:57:49.828Z,99.90
2018-09-21T15:00:24.270Z,99.90
2018-09-21T15:02:58.037Z,99.90
2018-09-21T15:05:31.796Z,99.90
2018-09-21T15:08:06.253Z,99.80
2018-09-21T15:10:40.960Z,97.30
2018-09-21T15:13:14.643Z,97.30
2018-09-21T15:15:48.391Z,94.90
2018-09-21T15:18:22.132Z,93.30
2018-09-21T15:20:55.997Z,93.20
2018-09-21T15:23:29.692Z,91.90
2018-09-21T15:26:04.134Z,90.60
2018-09-21T15:28:37.934Z,90.50
2018-09-21T15:31:11.671Z,90.00
2018-09-21T15:33:45.507Z,89.70
2018-09-21T15:36:19.957Z,98.70
2018-09-21T15:38:53.619Z,98.80
2018-09-21T15:41:27.347Z,99.90
2018-09-21T15:44:01.103Z,99.90
2018-09-21T15:46:34.744Z,99.90
2018-09-21T15:49:08.481Z,99.90
2018-09-21T15:51:42.106Z,99.90
2018-09-21T15:54:15.982Z,99.90
2018-09-21T15:56:50.748Z,99.90
2018-09-21T15:59:24.395Z,99.90
2018-09-21T16:01:58.883Z,99.90
2018-09-21T16:04:32.575Z,99.90
2018-09-21T16:07:06.438Z,99.90
2018-09-21T16:09:40.780Z,99.90
2018-09-21T16:12:14.641Z,99.90
2018-09-21T16:14:48.293Z,99.90
2018-09-21T16:17:22.843Z,99.90
2018-09-21T16:19:56.444Z,99.90
2018-09-21T16:22:30.128Z,99.90
2018-09-21T16:25:03.861Z,99.90
2018-09-21T16:27:37.601Z,99.90
2018-09-21T16:30:12.203Z,99.90
2018-09-21T16:32:46.728Z,99.90
2018-09-21T16:35:20.287Z,99.90
2018-09-21T16:37:54.888Z,99.90
2018-09-21T16:40:29.420Z,99.90
2018-09-21T16:43:03.082Z,99.90
2018-09-21T16:45:36.806Z,99.90
2018-09-21T16:48:10.663Z,99.90
2018-09-21T16:50:45.092Z,99.90
2018-09-21T16:53:19.596Z,99.90
2018-09-21T16:55:53.311Z,99.90
2018-09-21T16:58:27.128Z,99.90
2018-09-21T17:01:01.557Z,99.90
2018-09-21T17:03:35.288Z,99.90
2018-09-21T17:06:09.112Z,99.90
2018-09-21T17:08:43.610Z,99.90
2018-09-21T17:11:18.282Z,99.90
2018-09-21T17:13:52.077Z,99.90
2018-09-21T17:16:25.681Z,99.90
2018-09-21T17:18:59.467Z,99.90
2018-09-21T17:21:33.116Z,99.90
2018-09-21T17:24:06.852Z,99.90
2018-09-21T17:26:41.487Z,99.90
2018-09-21T17:29:15.135Z,99.90
2018-09-21T17:31:48.840Z,99.90
2018-09-21T17:34:23.376Z,99.90
2018-09-21T17:36:57.100Z,99.90
2018-09-21T17:39:30.889Z,99.90
2018-09-21T17:42:04.630Z,99.90
2018-09-21T17:44:38.437Z,99.90
2018-09-21T17:47:12.459Z,99.90
2018-09-21T17:49:46.110Z,99.90
2018-09-21T17:52:20.619Z,99.90
2018-09-21T17:54:55.124Z,99.90
2018-09-21T17:57:29.495Z,99.90
2018-09-21T18:00:04.020Z,99.90
2018-09-21T18:02:40.577Z,99.90
2018-09-21T18:08:03.971Z,99.90
2018-09-21T18:10:38.339Z,99.90
2018-09-21T18:13:12.116Z,99.90
2018-09-21T18:15:46.848Z,99.90
2018-09-21T18:18:20.636Z,99.90
2018-09-21T18:20:54.343Z,99.90
2018-09-21T18:23:28.108Z,99.90
2018-09-21T18:26:01.869Z,99.90
2018-09-21T18:28:38.493Z,99.90
2018-09-21T18:31:12.501Z,99.90
2018-09-21T18:33:46.221Z,99.90
2018-09-21T18:36:20.727Z,99.90
2018-09-21T18:38:55.244Z,99.90
2018-09-21T18:41:28.814Z,99.90
2018-09-21T18:44:02.620Z,99.90
2018-09-21T18:46:36.341Z,99.90
2018-09-21T18:49:10.032Z,99.90
2018-09-21T18:51:43.776Z,99.90
2018-09-21T18:54:18.395Z,99.90
2018-09-21T18:56:52.259Z,99.90
2018-09-21T18:59:25.890Z,99.90
2018-09-21T19:01:59.621Z,99.90
2018-09-21T19:04:34.124Z,99.90
2018-09-21T19:07:07.736Z,99.90
2018-09-21T19:09:41.365Z,99.90
2018-09-21T19:12:15.021Z,99.90
2018-09-21T19:14:48.743Z,99.90
2018-09-21T19:17:22.549Z,99.90
2018-09-21T19:19:56.260Z,99.90
2018-09-21T19:22:30.676Z,99.90
2018-09-21T19:25:04.259Z,99.90
2018-09-21T19:27:37.963Z,99.90
2018-09-21T19:30:11.710Z,99.90
2018-09-21T19:32:45.433Z,99.90
2018-09-21T19:35:19.226Z,99.90
2018-09-21T19:37:52.895Z,99.90
2018-09-21T19:40:26.695Z,99.90
2018-09-21T19:43:00.467Z,99.90
2018-09-21T19:45:35.111Z,99.90
2018-09-21T19:48:08.764Z,99.90
2018-09-21T19:50:42.504Z,99.90
2018-09-21T19:53:16.188Z,99.90
2018-09-21T19:55:49.979Z,99.90
2018-09-21T19:58:23.777Z,99.90
2018-09-21T20:00:57.526Z,99.90
2018-09-21T20:03:31.239Z,99.90
2018-09-21T20:06:04.990Z,99.90
2018-09-21T20:08:38.661Z,99.90
2018-09-21T20:11:12.399Z,99.90
2018-09-21T20:13:46.903Z,99.90
2018-09-21T20:16:20.610Z,99.90
2018-09-21T20:18:54.352Z,99.90
2018-09-21T20:21:28.152Z,99.90
2018-09-21T20:24:01.870Z,99.90
2018-09-21T20:26:35.614Z,99.90
2018-09-21T20:29:09.349Z,99.90
2018-09-21T20:34:36.150Z,99.90
2018-09-21T20:37:10.034Z,99.90
2018-09-21T20:39:44.468Z,99.90
2018-09-21T20:42:18.230Z,99.90
2018-09-21T20:44:52.071Z,99.90
2018-09-21T20:47:25.877Z,99.90
2018-09-21T20:49:59.679Z,99.90
2018-09-21T20:52:33.497Z,99.90
2018-09-21T20:55:08.183Z,99.90
2018-09-21T20:57:42.987Z,99.90
2018-09-21T21:00:16.807Z,99.90
2018-09-21T21:02:50.642Z,99.90
2018-09-21T21:05:24.472Z,99.90
2018-09-21T21:07:58.155Z,99.90
2018-09-21T21:10:32.007Z,99.90
2018-09-21T21:13:06.562Z,99.90
2018-09-21T21:15:40.332Z,99.90
2018-09-21T21:18:14.042Z,99.90
2018-09-21T21:20:47.848Z,99.90
2018-09-21T21:23:21.590Z,99.90
2018-09-21T21:25:55.382Z,99.90
2018-09-21T21:28:29.101Z,99.90
2018-09-21T21:31:02.743Z,99.90
2018-09-21T21:33:36.475Z,99.90
2018-09-21T21:36:10.590Z,99.90
2018-09-21T21:38:44.500Z,99.90
2018-09-21T21:41:18.484Z,99.90
2018-09-21T21:43:52.308Z,99.90
2018-09-21T21:46:26.891Z,99.90
2018-09-21T21:49:00.616Z,99.90
2018-09-21T21:51:34.476Z,99.90
2018-09-21T21:54:08.282Z,99.90
2018-09-21T21:56:41.960Z,99.90
2018-09-21T21:59:15.803Z,99.90
2018-09-21T22:01:49.616Z,99.90
2018-09-21T22:04:23.419Z,99.90
2018-09-21T22:06:57.267Z,99.90
2018-09-21T22:09:31.095Z,99.90
2018-09-21T22:12:04.931Z,99.90
2018-09-21T22:14:38.704Z,99.90
2018-09-21T22:17:12.536Z,99.90
2018-09-21T22:19:47.117Z,99.90
2018-09-21T22:22:20.965Z,99.90
2018-09-21T22:24:54.795Z,99.90
2018-09-21T22:27:28.696Z,99.90
2018-09-21T22:30:03.431Z,99.90
2018-09-21T22:32:37.064Z,99.90
2018-09-21T22:35:10.863Z,99.90
2018-09-21T22:37:44.612Z,99.90
2018-09-21T22:40:18.419Z,99.90
2018-09-21T22:42:52.185Z,99.90
2018-09-21T22:45:26.049Z,99.90
2018-09-21T22:47:59.828Z,99.90
2018-09-21T22:50:33.670Z,99.90
2018-09-21T22:53:07.470Z,99.90
2018-09-21T22:55:41.239Z,99.90
2018-09-21T22:58:14.991Z,99.90
2018-09-21T23:00:48.758Z,99.90
2018-09-21T23:03:23.260Z,99.90
2018-09-21T23:05:56.900Z,99.90
2018-09-21T23:08:30.706Z,99.90
2018-09-21T23:11:04.593Z,99.90
2018-09-21T23:13:39.092Z,99.90
2018-09-21T23:16:12.814Z,99.90
2018-09-21T23:18:46.499Z,99.90
2018-09-21T23:21:20.377Z,99.90
2018-09-21T23:23:54.144Z,99.90
2018-09-21T23:26:28.007Z,99.90
2018-09-21T23:29:02.530Z,99.90
2018-09-21T23:31:36.353Z,99.90
2018-09-21T23:34:10.162Z,99.90
2018-09-21T23:36:43.910Z,99.90
2018-09-21T23:39:17.657Z,99.90
2018-09-21T23:41:51.396Z,99.90
2018-09-21T23:44:25.508Z,99.90
2018-09-21T23:46:59.251Z,99.90
2018-09-21T23:49:33.755Z,99.90
2018-09-21T23:52:08.267Z,99.90
2018-09-21T23:54:42.815Z,99.90
2018-09-21T23:57:16.465Z,99.90
2018-09-21T23:59:50.245Z,99.90
